sensor_id;sensor_type;location;lat;lon;timestamp;temperature;humidity
27200;DHT22;14714;48.106;11.546;2023-05-07T00:01:29;11.10;99.90
27200;DHT22;14714;48.106;11.546;2023-05-07T00:03:56;11.10;99.90
27200;DHT22;14714;48.106;11.546;2023-05-07T00:06:23;11.10;99.90
27200;DHT22;14714;48.106;11.546;2023-05-07T00:08:50;11.00;99.90
27200;DHT22;14714;48.106;11.546;2023-05-07T00:11:17;11.00;99.90
27200;DHT22;14714;48.106;11.546;2023-05-07T00:13:44;11.00;99.90
27200;DHT22;14714;48.106;11.546;2023-05-07T00:16:10;11.00;99.90
27200;DHT22;14714;48.106;11.546;2023-05-07T00:18:37;11.00;99.90
27200;DHT22;14714;48.106;11.546;2023-05-07T00:21:04;10.90;99.90
27200;DHT22;14714;48.106;11.546;2023-05-07T00:23:31;11.00;99.90
27200;DHT22;14714;48.106;11.546;2023-05-07T00:25:58;10.90;99.90
27200;DHT22;14714;48.106;11.546;2023-05-07T00:28:24;10.90;99.90
27200;DHT22;14714;48.106;11.546;2023-05-07T00:30:52;10.90;99.90
27200;DHT22;14714;48.106;11.546;2023-05-07T00:33:19;10.80;99.90
27200;DHT22;14714;48.106;11.546;2023-05-07T00:35:47;10.80;99.90
27200;DHT22;14714;48.106;11.546;2023-05-07T00:38:14;10.80;99.90
27200;DHT22;14714;48.106;11.546;2023-05-07T00:40:41;10.80;99.90
27200;DHT22;14714;48.106;11.546;2023-05-07T00:43:08;10.80;99.90
27200;DHT22;14714;48.106;11.546;2023-05-07T00:45:35;10.80;99.90
27200;DHT22;14714;48.106;11.546;2023-05-07T00:48:02;10.90;99.90
27200;DHT22;14714;48.106;11.546;2023-05-07T00:50:30;10.90;99.90
27200;DHT22;14714;48.106;11.546;2023-05-07T00:52:57;10.90;99.90
27200;DHT22;14714;48.106;11.546;2023-05-07T00:55:24;10.90;99.90
27200;DHT22;14714;48.106;11.546;2023-05-07T00:57:51;10.90;99.90
27200;DHT22;14714;48.106;11.546;2023-05-07T01:00:19;10.90;99.90
27200;DHT22;14714;48.106;11.546;2023-05-07T01:02:46;10.90;99.90
27200;DHT22;14714;48.106;11.546;2023-05-07T01:05:16;10.90;99.90
27200;DHT22;14714;48.106;11.546;2023-05-07T01:07:44;10.90;99.90
27200;DHT22;14714;48.106;11.546;2023-05-07T01:10:11;10.90;99.90
27200;DHT22;14714;48.106;11.546;2023-05-07T01:12:40;10.90;99.90
27200;DHT22;14714;48.106;11.546;2023-05-07T01:15:08;10.80;99.90
27200;DHT22;14714;48.106;11.546;2023-05-07T01:17:37;10.80;99.90
27200;DHT22;14714;48.106;11.546;2023-05-07T01:20:05;10.80;99.90
27200;DHT22;14714;48.106;11.546;2023-05-07T01:22:37;10.80;99.90
27200;DHT22;14714;48.106;11.546;2023-05-07T01:25:06;10.80;99.90
27200;DHT22;14714;48.106;11.546;2023-05-07T01:27:34;10.80;99.90
27200;DHT22;14714;48.106;11.546;2023-05-07T01:30:02;10.80;99.90
27200;DHT22;14714;48.106;11.546;2023-05-07T01:32:47;10.80;99.90
27200;DHT22;14714;48.106;11.546;2023-05-07T01:35:22;10.80;99.90
27200;DHT22;14714;48.106;11.546;2023-05-07T01:37:49;10.80;99.90
27200;DHT22;14714;48.106;11.546;2023-05-07T01:40:17;10.80;99.90
27200;DHT22;14714;48.106;11.546;2023-05-07T01:42:44;10.80;99.90
27200;DHT22;14714;48.106;11.546;2023-05-07T01:45:11;10.80;99.90
27200;DHT22;14714;48.106;11.546;2023-05-07T01:47:39;10.80;99.90
27200;DHT22;14714;48.106;11.546;2023-05-07T01:50:07;10.80;99.90
27200;DHT22;14714;48.106;11.546;2023-05-07T01:52:37;10.80;99.90
27200;DHT22;14714;48.106;11.546;2023-05-07T01:55:05;10.80;99.90
27200;DHT22;14714;48.106;11.546;2023-05-07T01:57:32;10.80;99.90
27200;DHT22;14714;48.106;11.546;2023-05-07T01:59:59;10.80;99.90
27200;DHT22;14714;48.106;11.546;2023-05-07T02:02:26;10.80;99.90
27200;DHT22;14714;48.106;11.546;2023-05-07T02:04:53;10.70;99.90
27200;DHT22;14714;48.106;11.546;2023-05-07T02:07:19;10.70;99.90
27200;DHT22;14714;48.106;11.546;2023-05-07T02:09:46;10.70;99.90
27200;DHT22;14714;48.106;11.546;2023-05-07T02:12:13;10.70;99.90
27200;DHT22;14714;48.106;11.546;2023-05-07T02:14:40;10.60;99.90
27200;DHT22;14714;48.106;11.546;2023-05-07T02:17:07;10.70;99.90
27200;DHT22;14714;48.106;11.546;2023-05-07T02:19:34;10.60;99.90
27200;DHT22;14714;48.106;11.546;2023-05-07T02:22:01;10.70;99.90
27200;DHT22;14714;48.106;11.546;2023-05-07T02:24:28;10.60;99.90
27200;DHT22;14714;48.106;11.546;2023-05-07T02:26:55;10.60;99.90
27200;DHT22;14714;48.106;11.546;2023-05-07T02:29:22;10.60;99.90
27200;DHT22;14714;48.106;11.546;2023-05-07T02:31:49;10.60;99.90
27200;DHT22;14714;48.106;11.546;2023-05-07T02:34:19;10.50;99.90
27200;DHT22;14714;48.106;11.546;2023-05-07T02:36:46;10.50;99.90
27200;DHT22;14714;48.106;11.546;2023-05-07T02:39:13;10.50;99.90
27200;DHT22;14714;48.106;11.546;2023-05-07T02:41:40;10.50;99.90
27200;DHT22;14714;48.106;11.546;2023-05-07T02:44:07;10.50;99.90
27200;DHT22;14714;48.106;11.546;2023-05-07T02:46:34;10.50;99.90
27200;DHT22;14714;48.106;11.546;2023-05-07T02:49:00;10.50;99.90
27200;DHT22;14714;48.106;11.546;2023-05-07T02:51:27;10.40;99.90
27200;DHT22;14714;48.106;11.546;2023-05-07T02:53:54;10.40;99.90
27200;DHT22;14714;48.106;11.546;2023-05-07T02:56:21;10.40;99.90
27200;DHT22;14714;48.106;11.546;2023-05-07T02:58:48;10.40;99.90
27200;DHT22;14714;48.106;11.546;2023-05-07T03:01:15;10.40;99.90
27200;DHT22;14714;48.106;11.546;2023-05-07T03:03:42;10.40;99.90
27200;DHT22;14714;48.106;11.546;2023-05-07T03:06:08;10.40;99.90
27200;DHT22;14714;48.106;11.546;2023-05-07T03:08:35;10.40;99.90
27200;DHT22;14714;48.106;11.546;2023-05-07T03:11:03;10.30;99.90
27200;DHT22;14714;48.106;11.546;2023-05-07T03:13:30;10.30;99.90
27200;DHT22;14714;48.106;11.546;2023-05-07T03:15:56;10.30;99.90
27200;DHT22;14714;48.106;11.546;2023-05-07T03:18:23;10.30;99.90
27200;DHT22;14714;48.106;11.546;2023-05-07T03:20:51;10.30;99.90
27200;DHT22;14714;48.106;11.546;2023-05-07T03:23:18;10.20;99.90
27200;DHT22;14714;48.106;11.546;2023-05-07T03:25:44;10.20;99.90
27200;DHT22;14714;48.106;11.546;2023-05-07T03:28:11;10.20;99.90
27200;DHT22;14714;48.106;11.546;2023-05-07T03:30:38;10.20;99.90
27200;DHT22;14714;48.106;11.546;2023-05-07T03:33:05;10.20;99.90
27200;DHT22;14714;48.106;11.546;2023-05-07T03:35:32;10.20;99.90
27200;DHT22;14714;48.106;11.546;2023-05-07T03:37:58;10.20;99.90
27200;DHT22;14714;48.106;11.546;2023-05-07T03:40:25;10.10;99.90
27200;DHT22;14714;48.106;11.546;2023-05-07T03:42:52;10.10;99.90
27200;DHT22;14714;48.106;11.546;2023-05-07T03:45:19;10.10;99.90
27200;DHT22;14714;48.106;11.546;2023-05-07T03:47:46;10.10;99.90
27200;DHT22;14714;48.106;11.546;2023-05-07T03:50:12;10.10;99.90
27200;DHT22;14714;48.106;11.546;2023-05-07T03:52:39;10.10;99.90
27200;DHT22;14714;48.106;11.546;2023-05-07T03:55:07;10.10;99.90
27200;DHT22;14714;48.106;11.546;2023-05-07T03:57:34;10.10;99.90
27200;DHT22;14714;48.106;11.546;2023-05-07T04:00:00;10.10;99.90
27200;DHT22;14714;48.106;11.546;2023-05-07T04:02:27;10.10;99.90
27200;DHT22;14714;48.106;11.546;2023-05-07T04:04:55;10.00;99.90
27200;DHT22;14714;48.106;11.546;2023-05-07T04:07:22;10.00;99.90
27200;DHT22;14714;48.106;11.546;2023-05-07T04:09:48;10.00;99.90
27200;DHT22;14714;48.106;11.546;2023-05-07T04:12:15;10.00;99.90
27200;DHT22;14714;48.106;11.546;2023-05-07T04:14:42;10.00;99.90
27200;DHT22;14714;48.106;11.546;2023-05-07T04:17:08;10.00;99.90
27200;DHT22;14714;48.106;11.546;2023-05-07T04:19:37;10.00;99.90
27200;DHT22;14714;48.106;11.546;2023-05-07T04:22:04;10.10;99.90
27200;DHT22;14714;48.106;11.546;2023-05-07T04:24:33;10.10;99.90
27200;DHT22;14714;48.106;11.546;2023-05-07T04:27:00;10.10;99.90
27200;DHT22;14714;48.106;11.546;2023-05-07T04:29:28;10.20;99.90
27200;DHT22;14714;48.106;11.546;2023-05-07T04:31:55;10.30;99.90
27200;DHT22;14714;48.106;11.546;2023-05-07T04:34:22;10.30;99.90
27200;DHT22;14714;48.106;11.546;2023-05-07T04:36:49;10.40;99.90
27200;DHT22;14714;48.106;11.546;2023-05-07T04:39:16;10.40;99.90
27200;DHT22;14714;48.106;11.546;2023-05-07T04:41:43;10.50;99.90
27200;DHT22;14714;48.106;11.546;2023-05-07T04:44:10;10.70;99.90
27200;DHT22;14714;48.106;11.546;2023-05-07T04:46:37;10.80;99.90
27200;DHT22;14714;48.106;11.546;2023-05-07T04:49:04;10.90;99.90
27200;DHT22;14714;48.106;11.546;2023-05-07T04:51:30;11.00;99.90
27200;DHT22;14714;48.106;11.546;2023-05-07T04:53:59;11.20;99.90
27200;DHT22;14714;48.106;11.546;2023-05-07T04:56:28;11.30;99.90
27200;DHT22;14714;48.106;11.546;2023-05-07T04:58:56;11.40;99.90
27200;DHT22;14714;48.106;11.546;2023-05-07T05:01:22;11.50;99.90
27200;DHT22;14714;48.106;11.546;2023-05-07T05:03:49;11.70;99.90
27200;DHT22;14714;48.106;11.546;2023-05-07T05:06:16;11.80;99.90
27200;DHT22;14714;48.106;11.546;2023-05-07T05:08:43;12.00;99.90
27200;DHT22;14714;48.106;11.546;2023-05-07T05:11:10;12.10;99.90
27200;DHT22;14714;48.106;11.546;2023-05-07T05:13:37;12.40;99.90
27200;DHT22;14714;48.106;11.546;2023-05-07T05:16:04;12.60;99.90
27200;DHT22;14714;48.106;11.546;2023-05-07T05:18:31;13.10;99.90
27200;DHT22;14714;48.106;11.546;2023-05-07T05:20:57;14.00;99.90
27200;DHT22;14714;48.106;11.546;2023-05-07T05:23:24;15.00;99.90
27200;DHT22;14714;48.106;11.546;2023-05-07T05:25:56;16.30;99.90
27200;DHT22;14714;48.106;11.546;2023-05-07T05:28:24;17.80;99.90
27200;DHT22;14714;48.106;11.546;2023-05-07T05:30:50;19.50;99.90
27200;DHT22;14714;48.106;11.546;2023-05-07T05:33:17;21.20;99.90
27200;DHT22;14714;48.106;11.546;2023-05-07T05:35:44;22.80;99.90
27200;DHT22;14714;48.106;11.546;2023-05-07T05:38:11;23.90;99.90
27200;DHT22;14714;48.106;11.546;2023-05-07T05:40:38;25.00;95.20
27200;DHT22;14714;48.106;11.546;2023-05-07T05:43:06;26.10;89.30
27200;DHT22;14714;48.106;11.546;2023-05-07T05:45:32;27.10;78.70
27200;DHT22;14714;48.106;11.546;2023-05-07T05:47:59;28.10;72.40
27200;DHT22;14714;48.106;11.546;2023-05-07T05:50:26;29.00;66.70
27200;DHT22;14714;48.106;11.546;2023-05-07T05:52:53;29.90;61.00
27200;DHT22;14714;48.106;11.546;2023-05-07T05:55:20;30.90;57.20
27200;DHT22;14714;48.106;11.546;2023-05-07T05:57:47;31.70;54.40
27200;DHT22;14714;48.106;11.546;2023-05-07T06:00:14;32.40;51.60
27200;DHT22;14714;48.106;11.546;2023-05-07T06:02:42;33.10;48.80
27200;DHT22;14714;48.106;11.546;2023-05-07T06:05:09;33.70;47.20
27200;DHT22;14714;48.106;11.546;2023-05-07T06:07:36;34.30;45.10
27200;DHT22;14714;48.106;11.546;2023-05-07T06:10:03;34.80;44.70
27200;DHT22;14714;48.106;11.546;2023-05-07T06:12:30;35.40;42.50
27200;DHT22;14714;48.106;11.546;2023-05-07T06:14:57;35.90;41.50
27200;DHT22;14714;48.106;11.546;2023-05-07T06:17:23;36.20;39.40
27200;DHT22;14714;48.106;11.546;2023-05-07T06:19:51;36.50;38.80
27200;DHT22;14714;48.106;11.546;2023-05-07T06:22:18;36.90;38.50
27200;DHT22;14714;48.106;11.546;2023-05-07T06:24:45;37.20;37.60
27200;DHT22;14714;48.106;11.546;2023-05-07T06:27:12;37.60;36.60
27200;DHT22;14714;48.106;11.546;2023-05-07T06:29:39;38.00;36.10
27200;DHT22;14714;48.106;11.546;2023-05-07T06:32:10;38.40;35.50
27200;DHT22;14714;48.106;11.546;2023-05-07T06:34:38;38.60;34.70
27200;DHT22;14714;48.106;11.546;2023-05-07T06:37:05;38.50;34.40
27200;DHT22;14714;48.106;11.546;2023-05-07T06:39:32;38.60;34.10
27200;DHT22;14714;48.106;11.546;2023-05-07T06:42:00;38.60;34.70
27200;DHT22;14714;48.106;11.546;2023-05-07T06:44:27;38.80;33.30
27200;DHT22;14714;48.106;11.546;2023-05-07T06:46:54;38.90;34.20
27200;DHT22;14714;48.106;11.546;2023-05-07T06:49:20;39.30;33.40
27200;DHT22;14714;48.106;11.546;2023-05-07T06:51:47;39.70;32.60
27200;DHT22;14714;48.106;11.546;2023-05-07T06:54:14;39.70;31.90
27200;DHT22;14714;48.106;11.546;2023-05-07T06:56:41;39.80;32.10
27200;DHT22;14714;48.106;11.546;2023-05-07T06:59:08;39.50;31.90
27200;DHT22;14714;48.106;11.546;2023-05-07T07:01:35;39.20;31.90
27200;DHT22;14714;48.106;11.546;2023-05-07T07:04:01;39.10;32.60
27200;DHT22;14714;48.106;11.546;2023-05-07T07:06:28;38.70;32.10
27200;DHT22;14714;48.106;11.546;2023-05-07T07:08:56;38.50;32.80
27200;DHT22;14714;48.106;11.546;2023-05-07T07:11:23;38.60;33.90
27200;DHT22;14714;48.106;11.546;2023-05-07T07:13:49;38.90;32.80
27200;DHT22;14714;48.106;11.546;2023-05-07T07:16:17;38.70;32.30
27200;DHT22;14714;48.106;11.546;2023-05-07T07:18:43;38.50;31.80
27200;DHT22;14714;48.106;11.546;2023-05-07T07:21:10;38.50;31.90
27200;DHT22;14714;48.106;11.546;2023-05-07T07:23:37;38.40;31.80
27200;DHT22;14714;48.106;11.546;2023-05-07T07:26:04;38.20;31.80
27200;DHT22;14714;48.106;11.546;2023-05-07T07:28:32;37.90;32.80
27200;DHT22;14714;48.106;11.546;2023-05-07T07:30:59;38.20;33.40
27200;DHT22;14714;48.106;11.546;2023-05-07T07:33:25;38.40;32.70
27200;DHT22;14714;48.106;11.546;2023-05-07T07:35:52;38.40;32.40
27200;DHT22;14714;48.106;11.546;2023-05-07T07:38:19;38.80;32.50
27200;DHT22;14714;48.106;11.546;2023-05-07T07:40:47;39.20;31.70
27200;DHT22;14714;48.106;11.546;2023-05-07T07:43:14;39.70;31.20
27200;DHT22;14714;48.106;11.546;2023-05-07T07:45:41;40.00;31.60
27200;DHT22;14714;48.106;11.546;2023-05-07T07:48:08;40.30;30.30
27200;DHT22;14714;48.106;11.546;2023-05-07T07:50:35;40.60;30.80
27200;DHT22;14714;48.106;11.546;2023-05-07T07:53:11;40.70;29.60
27200;DHT22;14714;48.106;11.546;2023-05-07T07:55:40;40.40;29.60
27200;DHT22;14714;48.106;11.546;2023-05-07T07:58:07;40.40;30.30
27200;DHT22;14714;48.106;11.546;2023-05-07T08:00:34;40.70;30.20
27200;DHT22;14714;48.106;11.546;2023-05-07T08:03:01;40.60;30.00
27200;DHT22;14714;48.106;11.546;2023-05-07T08:05:29;40.50;29.80
27200;DHT22;14714;48.106;11.546;2023-05-07T08:07:56;40.70;29.20
27200;DHT22;14714;48.106;11.546;2023-05-07T08:10:23;40.40;29.30
27200;DHT22;14714;48.106;11.546;2023-05-07T08:12:50;40.20;30.00
27200;DHT22;14714;48.106;11.546;2023-05-07T08:15:17;39.10;30.50
27200;DHT22;14714;48.106;11.546;2023-05-07T08:17:44;38.60;30.40
27200;DHT22;14714;48.106;11.546;2023-05-07T08:20:11;38.20;31.70
27200;DHT22;14714;48.106;11.546;2023-05-07T08:22:38;37.90;33.00
27200;DHT22;14714;48.106;11.546;2023-05-07T08:25:05;37.60;32.20
27200;DHT22;14714;48.106;11.546;2023-05-07T08:27:32;37.80;32.80
27200;DHT22;14714;48.106;11.546;2023-05-07T08:29:58;38.20;32.30
27200;DHT22;14714;48.106;11.546;2023-05-07T08:32:25;38.80;31.00
27200;DHT22;14714;48.106;11.546;2023-05-07T08:34:52;38.80;31.70
27200;DHT22;14714;48.106;11.546;2023-05-07T08:37:19;38.80;31.60
27200;DHT22;14714;48.106;11.546;2023-05-07T08:39:46;37.80;32.60
27200;DHT22;14714;48.106;11.546;2023-05-07T08:42:14;37.30;33.20
27200;DHT22;14714;48.106;11.546;2023-05-07T08:44:42;37.50;33.30
27200;DHT22;14714;48.106;11.546;2023-05-07T08:47:10;37.30;32.60
27200;DHT22;14714;48.106;11.546;2023-05-07T08:49:37;36.80;32.60
27200;DHT22;14714;48.106;11.546;2023-05-07T08:52:04;36.40;33.30
27200;DHT22;14714;48.106;11.546;2023-05-07T08:54:37;36.20;33.30
27200;DHT22;14714;48.106;11.546;2023-05-07T08:57:04;36.20;33.70
27200;DHT22;14714;48.106;11.546;2023-05-07T08:59:31;36.40;33.10
27200;DHT22;14714;48.106;11.546;2023-05-07T09:01:58;36.20;33.70
27200;DHT22;14714;48.106;11.546;2023-05-07T09:04:24;36.20;34.00
27200;DHT22;14714;48.106;11.546;2023-05-07T09:06:51;35.50;33.30
27200;DHT22;14714;48.106;11.546;2023-05-07T09:09:18;34.60;34.20
27200;DHT22;14714;48.106;11.546;2023-05-07T09:11:45;34.00;36.90
27200;DHT22;14714;48.106;11.546;2023-05-07T09:14:12;34.10;36.10
27200;DHT22;14714;48.106;11.546;2023-05-07T09:16:39;34.30;35.50
27200;DHT22;14714;48.106;11.546;2023-05-07T09:19:06;34.80;35.30
27200;DHT22;14714;48.106;11.546;2023-05-07T09:21:33;35.30;35.10
27200;DHT22;14714;48.106;11.546;2023-05-07T09:23:59;35.10;33.40
27200;DHT22;14714;48.106;11.546;2023-05-07T09:26:26;34.90;33.60
27200;DHT22;14714;48.106;11.546;2023-05-07T09:28:54;34.60;35.50
27200;DHT22;14714;48.106;11.546;2023-05-07T09:31:21;34.60;35.30
27200;DHT22;14714;48.106;11.546;2023-05-07T09:33:50;34.50;34.60
27200;DHT22;14714;48.106;11.546;2023-05-07T09:36:18;34.40;34.80
27200;DHT22;14714;48.106;11.546;2023-05-07T09:38:45;34.10;36.00
27200;DHT22;14714;48.106;11.546;2023-05-07T09:41:12;33.70;37.00
27200;DHT22;14714;48.106;11.546;2023-05-07T09:43:40;33.20;38.50
27200;DHT22;14714;48.106;11.546;2023-05-07T09:46:11;32.80;40.40
27200;DHT22;14714;48.106;11.546;2023-05-07T09:48:40;33.10;38.70
27200;DHT22;14714;48.106;11.546;2023-05-07T09:51:29;33.10;38.00
27200;DHT22;14714;48.106;11.546;2023-05-07T09:53:57;33.40;36.90
27200;DHT22;14714;48.106;11.546;2023-05-07T09:56:24;33.30;37.30
27200;DHT22;14714;48.106;11.546;2023-05-07T09:58:53;33.20;38.50
27200;DHT22;14714;48.106;11.546;2023-05-07T10:01:20;33.00;40.00
27200;DHT22;14714;48.106;11.546;2023-05-07T10:03:49;32.70;38.40
27200;DHT22;14714;48.106;11.546;2023-05-07T10:06:17;32.10;38.90
27200;DHT22;14714;48.106;11.546;2023-05-07T10:08:46;31.70;40.60
27200;DHT22;14714;48.106;11.546;2023-05-07T10:11:14;31.80;39.50
27200;DHT22;14714;48.106;11.546;2023-05-07T10:13:43;32.00;38.30
27200;DHT22;14714;48.106;11.546;2023-05-07T10:16:10;31.80;39.10
27200;DHT22;14714;48.106;11.546;2023-05-07T10:18:37;31.50;40.50
27200;DHT22;14714;48.106;11.546;2023-05-07T10:21:11;31.10;40.40
27200;DHT22;14714;48.106;11.546;2023-05-07T10:23:41;30.50;42.20
27200;DHT22;14714;48.106;11.546;2023-05-07T10:26:11;30.20;42.60
27200;DHT22;14714;48.106;11.546;2023-05-07T10:28:42;30.20;41.40
27200;DHT22;14714;48.106;11.546;2023-05-07T10:33:56;29.60;43.50
27200;DHT22;14714;48.106;11.546;2023-05-07T10:36:23;29.50;44.60
27200;DHT22;14714;48.106;11.546;2023-05-07T10:38:51;29.50;44.60
27200;DHT22;14714;48.106;11.546;2023-05-07T10:41:18;29.30;45.40
27200;DHT22;14714;48.106;11.546;2023-05-07T10:43:45;29.10;44.80
27200;DHT22;14714;48.106;11.546;2023-05-07T10:46:20;28.80;45.60
27200;DHT22;14714;48.106;11.546;2023-05-07T10:51:38;28.70;45.30
27200;DHT22;14714;48.106;11.546;2023-05-07T10:56:42;28.40;44.30
27200;DHT22;14714;48.106;11.546;2023-05-07T11:02:01;27.70;44.80
27200;DHT22;14714;48.106;11.546;2023-05-07T11:04:30;27.50;46.50
27200;DHT22;14714;48.106;11.546;2023-05-07T11:10:00;26.80;46.30
27200;DHT22;14714;48.106;11.546;2023-05-07T11:15:09;26.10;48.30
27200;DHT22;14714;48.106;11.546;2023-05-07T11:18:13;25.70;47.30
27200;DHT22;14714;48.106;11.546;2023-05-07T11:20:49;25.40;49.60
27200;DHT22;14714;48.106;11.546;2023-05-07T11:26:05;25.70;51.60
27200;DHT22;14714;48.106;11.546;2023-05-07T11:28:42;26.00;50.90
27200;DHT22;14714;48.106;11.546;2023-05-07T11:31:10;26.10;50.10
27200;DHT22;14714;48.106;11.546;2023-05-07T11:33:38;26.10;51.70
27200;DHT22;14714;48.106;11.546;2023-05-07T11:36:05;26.30;49.80
27200;DHT22;14714;48.106;11.546;2023-05-07T11:38:37;26.30;49.80
27200;DHT22;14714;48.106;11.546;2023-05-07T11:41:05;26.30;51.00
27200;DHT22;14714;48.106;11.546;2023-05-07T11:43:32;26.40;51.60
27200;DHT22;14714;48.106;11.546;2023-05-07T11:46:09;26.40;52.30
27200;DHT22;14714;48.106;11.546;2023-05-07T11:48:36;26.10;51.10
27200;DHT22;14714;48.106;11.546;2023-05-07T11:51:07;25.90;51.40
27200;DHT22;14714;48.106;11.546;2023-05-07T11:53:41;25.60;52.20
27200;DHT22;14714;48.106;11.546;2023-05-07T11:56:13;25.50;53.80
27200;DHT22;14714;48.106;11.546;2023-05-07T11:58:42;25.50;53.90
27200;DHT22;14714;48.106;11.546;2023-05-07T12:01:10;25.50;55.10
27200;DHT22;14714;48.106;11.546;2023-05-07T12:03:40;25.60;53.60
27200;DHT22;14714;48.106;11.546;2023-05-07T12:06:10;25.40;53.50
27200;DHT22;14714;48.106;11.546;2023-05-07T12:08:39;25.30;53.50
27200;DHT22;14714;48.106;11.546;2023-05-07T12:11:25;25.20;53.90
27200;DHT22;14714;48.106;11.546;2023-05-07T12:13:54;25.10;55.10
27200;DHT22;14714;48.106;11.546;2023-05-07T12:16:25;25.00;55.80
27200;DHT22;14714;48.106;11.546;2023-05-07T12:18:53;24.90;56.20
27200;DHT22;14714;48.106;11.546;2023-05-07T12:21:22;24.90;55.90
27200;DHT22;14714;48.106;11.546;2023-05-07T12:23:49;24.80;56.50
27200;DHT22;14714;48.106;11.546;2023-05-07T12:26:16;24.60;56.20
27200;DHT22;14714;48.106;11.546;2023-05-07T12:28:43;24.60;56.90
27200;DHT22;14714;48.106;11.546;2023-05-07T12:31:10;24.40;56.10
27200;DHT22;14714;48.106;11.546;2023-05-07T12:33:37;24.30;56.50
27200;DHT22;14714;48.106;11.546;2023-05-07T12:36:06;24.20;58.20
27200;DHT22;14714;48.106;11.546;2023-05-07T12:38:38;24.20;56.50
27200;DHT22;14714;48.106;11.546;2023-05-07T12:41:06;24.20;57.30
27200;DHT22;14714;48.106;11.546;2023-05-07T12:43:34;24.10;57.90
27200;DHT22;14714;48.106;11.546;2023-05-07T12:46:05;24.10;58.00
27200;DHT22;14714;48.106;11.546;2023-05-07T12:48:33;24.20;57.50
27200;DHT22;14714;48.106;11.546;2023-05-07T12:51:02;24.20;57.60
27200;DHT22;14714;48.106;11.546;2023-05-07T12:53:30;24.20;56.30
27200;DHT22;14714;48.106;11.546;2023-05-07T12:55:58;24.10;56.10
27200;DHT22;14714;48.106;11.546;2023-05-07T12:58:27;23.90;56.20
27200;DHT22;14714;48.106;11.546;2023-05-07T13:00:55;23.80;57.50
27200;DHT22;14714;48.106;11.546;2023-05-07T13:03:29;23.80;58.00
27200;DHT22;14714;48.106;11.546;2023-05-07T13:05:59;23.80;57.70
27200;DHT22;14714;48.106;11.546;2023-05-07T13:08:33;23.80;57.70
27200;DHT22;14714;48.106;11.546;2023-05-07T13:11:02;23.80;57.20
27200;DHT22;14714;48.106;11.546;2023-05-07T13:13:35;23.70;57.60
27200;DHT22;14714;48.106;11.546;2023-05-07T13:16:03;23.70;56.90
27200;DHT22;14714;48.106;11.546;2023-05-07T13:18:30;23.80;56.60
27200;DHT22;14714;48.106;11.546;2023-05-07T13:20:58;23.80;57.40
27200;DHT22;14714;48.106;11.546;2023-05-07T13:23:26;23.80;56.20
27200;DHT22;14714;48.106;11.546;2023-05-07T13:25:53;23.80;56.40
27200;DHT22;14714;48.106;11.546;2023-05-07T13:28:24;23.80;56.20
27200;DHT22;14714;48.106;11.546;2023-05-07T13:30:51;23.70;54.80
27200;DHT22;14714;48.106;11.546;2023-05-07T13:33:21;23.70;56.00
27200;DHT22;14714;48.106;11.546;2023-05-07T13:35:48;23.70;55.70
27200;DHT22;14714;48.106;11.546;2023-05-07T13:38:14;23.60;55.20
27200;DHT22;14714;48.106;11.546;2023-05-07T13:40:42;23.50;55.20
27200;DHT22;14714;48.106;11.546;2023-05-07T13:43:09;23.40;55.40
27200;DHT22;14714;48.106;11.546;2023-05-07T13:45:37;23.30;54.40
27200;DHT22;14714;48.106;11.546;2023-05-07T13:48:04;23.40;56.10
27200;DHT22;14714;48.106;11.546;2023-05-07T13:50:31;23.50;55.20
27200;DHT22;14714;48.106;11.546;2023-05-07T13:52:58;23.50;55.70
27200;DHT22;14714;48.106;11.546;2023-05-07T13:55:25;23.50;54.40
27200;DHT22;14714;48.106;11.546;2023-05-07T13:57:59;23.50;54.40
27200;DHT22;14714;48.106;11.546;2023-05-07T14:00:28;23.40;54.80
27200;DHT22;14714;48.106;11.546;2023-05-07T14:02:56;23.40;54.00
27200;DHT22;14714;48.106;11.546;2023-05-07T14:05:23;23.50;54.60
27200;DHT22;14714;48.106;11.546;2023-05-07T14:07:51;23.50;54.80
27200;DHT22;14714;48.106;11.546;2023-05-07T14:10:19;23.50;54.60
27200;DHT22;14714;48.106;11.546;2023-05-07T14:12:46;23.40;54.90
27200;DHT22;14714;48.106;11.546;2023-05-07T14:15:14;23.20;55.80
27200;DHT22;14714;48.106;11.546;2023-05-07T14:17:41;23.20;55.70
27200;DHT22;14714;48.106;11.546;2023-05-07T14:20:08;23.10;55.40
27200;DHT22;14714;48.106;11.546;2023-05-07T14:22:37;23.00;56.30
27200;DHT22;14714;48.106;11.546;2023-05-07T14:25:04;23.00;55.50
27200;DHT22;14714;48.106;11.546;2023-05-07T14:27:33;22.90;56.30
27200;DHT22;14714;48.106;11.546;2023-05-07T14:29:59;22.90;56.20
27200;DHT22;14714;48.106;11.546;2023-05-07T14:32:26;22.90;57.00
27200;DHT22;14714;48.106;11.546;2023-05-07T14:34:53;22.90;56.80
27200;DHT22;14714;48.106;11.546;2023-05-07T14:37:20;23.00;56.70
27200;DHT22;14714;48.106;11.546;2023-05-07T14:39:47;23.00;56.60
27200;DHT22;14714;48.106;11.546;2023-05-07T14:42:17;23.00;57.40
27200;DHT22;14714;48.106;11.546;2023-05-07T14:44:44;22.90;56.80
27200;DHT22;14714;48.106;11.546;2023-05-07T14:47:12;22.90;56.80
27200;DHT22;14714;48.106;11.546;2023-05-07T14:49:39;22.80;57.50
27200;DHT22;14714;48.106;11.546;2023-05-07T14:52:07;22.80;57.80
27200;DHT22;14714;48.106;11.546;2023-05-07T14:54:37;22.80;57.80
27200;DHT22;14714;48.106;11.546;2023-05-07T14:57:05;22.70;58.00
27200;DHT22;14714;48.106;11.546;2023-05-07T14:59:32;22.70;58.00
27200;DHT22;14714;48.106;11.546;2023-05-07T15:01:59;22.70;58.20
27200;DHT22;14714;48.106;11.546;2023-05-07T15:04:29;22.60;58.60
27200;DHT22;14714;48.106;11.546;2023-05-07T15:06:56;22.50;59.10
27200;DHT22;14714;48.106;11.546;2023-05-07T15:09:22;22.50;59.40
27200;DHT22;14714;48.106;11.546;2023-05-07T15:11:49;22.40;59.80
27200;DHT22;14714;48.106;11.546;2023-05-07T15:14:16;22.30;60.60
27200;DHT22;14714;48.106;11.546;2023-05-07T15:16:43;22.20;61.00
27200;DHT22;14714;48.106;11.546;2023-05-07T15:19:10;22.10;61.00
27200;DHT22;14714;48.106;11.546;2023-05-07T15:21:37;22.10;61.10
27200;DHT22;14714;48.106;11.546;2023-05-07T15:24:03;22.10;61.10
27200;DHT22;14714;48.106;11.546;2023-05-07T15:26:31;22.10;61.80
27200;DHT22;14714;48.106;11.546;2023-05-07T15:28:57;22.00;61.30
27200;DHT22;14714;48.106;11.546;2023-05-07T15:31:24;21.90;61.90
27200;DHT22;14714;48.106;11.546;2023-05-07T15:33:52;21.90;62.30
27200;DHT22;14714;48.106;11.546;2023-05-07T15:36:20;21.80;62.40
27200;DHT22;14714;48.106;11.546;2023-05-07T15:38:47;21.80;63.50